createdAt,value
2019-03-30T00:04:50.206Z,22.30
2019-03-30T00:07:32.219Z,19.40
2019-03-30T00:10:14.733Z,21.00
2019-03-30T00:12:57.362Z,20.30
2019-03-30T00:15:42.716Z,20.80
2019-03-30T00:18:24.946Z,23.47
2019-03-30T00:21:07.165Z,20.40
2019-03-30T00:23:49.347Z,22.07
2019-03-30T00:26:31.247Z,21.53
2019-03-30T00:29:13.035Z,23.33
2019-03-30T00:31:54.891Z,23.73
2019-03-30T00:34:36.702Z,23.33
2019-03-30T00:37:18.362Z,22.30
2019-03-30T00:39:59.622Z,24.87
2019-03-30T00:42:41.824Z,25.97
2019-03-30T00:48:21.001Z,27.63
2019-03-30T00:51:10.514Z,24.67
2019-03-30T00:53:59.953Z,27.30
2019-03-30T00:56:49.480Z,25.77
2019-03-30T00:59:20.049Z,23.80
2019-03-30T01:05:23.826Z,27.67
2019-03-30T01:08:32.443Z,26.60
2019-03-30T01:11:28.935Z,27.50
2019-03-30T01:14:18.898Z,25.37
2019-03-30T01:17:01.979Z,25.13
2019-03-30T01:19:44.213Z,23.50
2019-03-30T01:22:29.167Z,23.13
2019-03-30T01:25:11.109Z,24.37
2019-03-30T01:27:52.771Z,24.03
2019-03-30T01:30:34.942Z,22.43
2019-03-30T01:33:17.135Z,22.47
2019-03-30T01:35:59.277Z,25.77
2019-03-30T01:38:40.714Z,22.93
2019-03-30T01:41:10.925Z,23.87
2019-03-30T01:44:00.358Z,21.33
2019-03-30T01:46:49.813Z,25.93
2019-03-30T01:49:20.146Z,24.00
2019-03-30T01:52:09.357Z,20.30
2019-03-30T01:58:12.650Z,23.40
2019-03-30T02:07:23.802Z,19.63
2019-03-30T02:10:05.881Z,22.00
2019-03-30T02:12:47.162Z,21.10
2019-03-30T02:15:29.652Z,20.00
2019-03-30T02:18:11.811Z,21.00
2019-03-30T02:20:53.442Z,20.43
2019-03-30T02:23:35.500Z,20.43
2019-03-30T02:26:16.654Z,21.33
2019-03-30T02:28:58.413Z,22.77
2019-03-30T02:31:29.278Z,22.07
2019-03-30T02:34:18.461Z,22.37
2019-03-30T02:36:48.659Z,19.23
2019-03-30T02:39:37.854Z,21.43
2019-03-30T02:42:27.085Z,21.27
2019-03-30T02:44:57.325Z,23.27
2019-03-30T02:47:46.559Z,19.40
2019-03-30T02:57:04.459Z,24.23
2019-03-30T03:03:08.072Z,25.40
2019-03-30T03:05:57.442Z,21.17
2019-03-30T03:11:47.531Z,19.67
2019-03-30T03:14:29.468Z,21.93
2019-03-30T03:17:11.338Z,19.30
2019-03-30T03:19:53.782Z,21.13
2019-03-30T03:22:35.185Z,19.97
2019-03-30T03:25:16.568Z,19.77
2019-03-30T03:27:46.933Z,20.13
2019-03-30T03:40:12.456Z,21.40
2019-03-30T03:52:38.598Z,22.60
2019-03-30T03:55:28.304Z,20.03
2019-03-30T04:01:54.315Z,23.30
2019-03-30T04:05:04.327Z,19.97
2019-03-30T04:11:28.663Z,22.40
2019-03-30T04:14:38.767Z,20.63
2019-03-30T04:20:36.283Z,20.13
2019-03-30T04:23:25.739Z,22.40
2019-03-30T04:26:15.613Z,22.83
2019-03-30T04:29:04.812Z,23.17
2019-03-30T04:31:54.470Z,23.83
2019-03-30T04:44:25.121Z,20.00
2019-03-30T04:47:14.430Z,19.13
2019-03-30T04:53:11.237Z,21.10
2019-03-30T04:55:53.114Z,21.87
2019-03-30T04:58:35.190Z,20.50
2019-03-30T05:01:16.566Z,21.80
2019-03-30T05:03:58.821Z,19.60
2019-03-30T05:06:40.910Z,23.20
2019-03-30T05:09:22.143Z,20.03
2019-03-30T05:12:04.309Z,20.60
2019-03-30T05:14:45.578Z,21.10
2019-03-30T05:17:27.674Z,25.33
2019-03-30T05:20:09.967Z,21.60
2019-03-30T05:22:51.858Z,20.17
2019-03-30T05:25:34.218Z,20.67
2019-03-30T05:28:16.391Z,23.77
2019-03-30T05:30:57.715Z,24.17
2019-03-30T05:33:39.919Z,23.30
2019-03-30T05:36:22.023Z,22.37
2019-03-30T05:39:04.991Z,23.67
2019-03-30T05:41:47.110Z,21.00
2019-03-30T05:44:29.046Z,21.50
2019-03-30T05:47:10.991Z,23.63
2019-03-30T05:49:52.475Z,24.60
2019-03-30T05:52:35.802Z,24.13
2019-03-30T05:55:17.841Z,23.40
2019-03-30T05:57:59.135Z,27.90
2019-03-30T06:00:41.472Z,29.17
2019-03-30T06:03:23.242Z,31.73
2019-03-30T06:06:05.353Z,36.57
2019-03-30T06:08:47.133Z,30.57
2019-03-30T06:11:28.994Z,28.87
2019-03-30T06:14:10.271Z,28.10
2019-03-30T06:16:52.194Z,26.60
2019-03-30T06:19:34.559Z,30.37
2019-03-30T06:22:16.389Z,25.43
2019-03-30T06:24:58.777Z,24.93
2019-03-30T06:27:29.271Z,24.57
2019-03-30T06:30:37.614Z,28.83
2019-03-30T06:33:26.994Z,24.70
2019-03-30T06:39:24.437Z,26.63
2019-03-30T06:42:13.654Z,22.30
2019-03-30T06:44:56.167Z,23.73
2019-03-30T06:47:37.455Z,24.07
2019-03-30T06:50:19.522Z,26.37
2019-03-30T06:53:02.271Z,23.23
2019-03-30T06:55:43.793Z,24.33
2019-03-30T06:58:26.021Z,21.87
2019-03-30T07:01:07.506Z,24.90
2019-03-30T07:03:49.626Z,21.07
2019-03-30T07:06:31.542Z,24.23
2019-03-30T07:09:13.594Z,22.30
2019-03-30T07:11:54.920Z,23.63
2019-03-30T07:14:37.263Z,24.73
2019-03-30T07:17:19.062Z,22.73
2019-03-30T07:20:00.681Z,25.27
2019-03-30T07:22:30.935Z,21.63
2019-03-30T07:25:20.171Z,23.50
2019-03-30T07:28:09.338Z,21.70
2019-03-30T07:30:51.440Z,23.97
2019-03-30T07:33:33.571Z,24.70
2019-03-30T07:36:15.623Z,23.47
2019-03-30T07:38:57.154Z,23.33
2019-03-30T07:41:40.222Z,23.07
2019-03-30T07:44:22.194Z,25.13
2019-03-30T07:47:04.486Z,23.33
2019-03-30T07:49:46.459Z,24.83
2019-03-30T07:52:16.937Z,23.50
2019-03-30T07:54:47.689Z,23.13
2019-03-30T07:57:37.343Z,22.30
2019-03-30T08:00:30.745Z,22.43
2019-03-30T08:03:37.254Z,24.77
2019-03-30T08:06:27.043Z,21.57
2019-03-30T08:09:16.707Z,19.97
2019-03-30T08:12:06.251Z,22.83
2019-03-30T08:14:55.708Z,22.47
2019-03-30T08:20:53.897Z,21.30
2019-03-30T08:23:24.640Z,19.90
2019-03-30T08:26:14.102Z,20.30
2019-03-30T08:29:04.083Z,21.57
2019-03-30T08:31:53.432Z,19.53
2019-03-30T08:34:42.866Z,19.73
2019-03-30T08:37:24.978Z,20.70
2019-03-30T08:40:06.606Z,20.50
2019-03-30T08:42:47.982Z,22.43
2019-03-30T08:45:18.746Z,20.93
2019-03-30T08:48:08.082Z,21.73
2019-03-30T08:51:16.326Z,24.57
2019-03-30T08:54:06.823Z,18.83
2019-03-30T08:57:15.600Z,18.60
2019-03-30T09:06:27.383Z,21.27
2019-03-30T09:09:16.974Z,21.47
2019-03-30T09:11:47.751Z,22.30
2019-03-30T09:14:37.211Z,18.37
2019-03-30T09:17:26.673Z,17.90
2019-03-30T09:20:16.307Z,19.93
2019-03-30T09:23:06.728Z,19.03
2019-03-30T09:25:56.145Z,19.40
2019-03-30T09:28:45.343Z,19.90
2019-03-30T09:31:15.981Z,22.07
2019-03-30T09:34:05.555Z,19.90
2019-03-30T09:36:55.080Z,18.97
2019-03-30T09:39:44.424Z,20.27
2019-03-30T09:42:33.953Z,18.57
2019-03-30T09:45:23.836Z,19.63
2019-03-30T09:48:13.559Z,19.83
2019-03-30T09:51:21.884Z,20.80
2019-03-30T09:54:23.062Z,16.70
2019-03-30T09:57:22.102Z,17.17
2019-03-30T10:00:11.581Z,15.33
2019-03-30T10:03:00.990Z,16.77
2019-03-30T10:05:50.806Z,18.73
2019-03-30T10:08:21.144Z,15.50
2019-03-30T10:14:17.539Z,18.07
2019-03-30T10:16:58.941Z,17.23
2019-03-30T10:19:40.836Z,15.63
2019-03-30T10:22:12.258Z,17.27
2019-03-30T10:25:02.120Z,15.90
2019-03-30T10:27:52.005Z,18.90
2019-03-30T10:30:41.219Z,15.97
2019-03-30T10:33:30.596Z,17.63
2019-03-30T10:36:01.294Z,16.00
2019-03-30T10:42:05.260Z,17.93
2019-03-30T10:44:55.002Z,16.83
2019-03-30T10:47:44.540Z,15.77
2019-03-30T10:50:34.806Z,14.63
2019-03-30T10:53:24.036Z,13.50
2019-03-30T10:56:13.552Z,13.67
2019-03-30T11:02:17.240Z,14.67
2019-03-30T11:05:06.721Z,14.13
2019-03-30T11:07:56.217Z,11.23
2019-03-30T11:10:45.678Z,14.83
2019-03-30T11:13:35.375Z,11.50
2019-03-30T11:16:24.537Z,10.23
2019-03-30T11:22:28.390Z,13.20
2019-03-30T11:25:10.327Z,10.57
2019-03-30T11:27:52.611Z,14.27
2019-03-30T11:30:34.991Z,10.00
2019-03-30T11:33:17.048Z,12.27
2019-03-30T11:35:58.860Z,15.17
2019-03-30T11:38:40.460Z,14.63
2019-03-30T11:41:24.794Z,11.03
2019-03-30T11:47:27.176Z,13.60
2019-03-30T11:50:09.131Z,10.10
2019-03-30T11:52:50.370Z,11.90
2019-03-30T11:55:22.476Z,12.13
2019-03-30T11:58:31.082Z,10.10
2019-03-30T12:01:01.358Z,10.20
2019-03-30T12:03:51.107Z,10.70
2019-03-30T12:09:48.654Z,10.90
2019-03-30T12:12:19.130Z,8.77
2019-03-30T12:15:08.412Z,11.30
2019-03-30T12:17:57.602Z,9.77
2019-03-30T12:20:47.215Z,10.93
2019-03-30T12:23:36.685Z,8.77
2019-03-30T12:26:26.086Z,11.77
2019-03-30T12:29:15.290Z,11.80
2019-03-30T12:41:41.414Z,10.40
2019-03-30T12:47:44.938Z,9.83
2019-03-30T12:53:50.371Z,11.27
2019-03-30T13:00:12.810Z,10.23
2019-03-30T13:02:43.086Z,13.73
2019-03-30T13:18:09.896Z,9.27
2019-03-30T13:20:59.116Z,8.70
2019-03-30T13:27:02.488Z,11.57
2019-03-30T13:29:51.931Z,8.37
2019-03-30T13:32:41.197Z,9.87
2019-03-30T13:35:30.634Z,9.60
2019-03-30T13:38:39.147Z,11.33
2019-03-30T13:41:09.511Z,10.17
2019-03-30T13:43:58.752Z,10.00
2019-03-30T13:46:29.111Z,8.03
2019-03-30T13:52:45.954Z,8.17
2019-03-30T13:55:35.157Z,8.63
2019-03-30T14:04:47.441Z,10.47
2019-03-30T14:07:36.813Z,11.63
2019-03-30T14:10:26.042Z,10.57
2019-03-30T14:13:16.232Z,10.30
2019-03-30T14:16:05.466Z,10.90
2019-03-30T14:22:02.919Z,9.10
2019-03-30T14:27:45.015Z,9.53
2019-03-30T14:30:26.413Z,9.20
2019-03-30T14:33:07.619Z,9.00
2019-03-30T14:35:49.556Z,11.93
2019-03-30T14:38:19.912Z,10.00
2019-03-30T14:44:23.899Z,10.10
2019-03-30T14:50:28.040Z,8.63
2019-03-30T14:56:25.589Z,10.13
2019-03-30T15:03:08.362Z,6.47
2019-03-30T15:09:12.049Z,10.73
2019-03-30T15:15:15.666Z,8.90
2019-03-30T15:21:08.543Z,9.00
2019-03-30T15:23:49.412Z,10.37
2019-03-30T15:26:31.555Z,10.47
2019-03-30T15:29:13.788Z,9.30
2019-03-30T15:31:56.139Z,8.77
2019-03-30T15:34:38.483Z,9.17
2019-03-30T15:37:20.608Z,25.77
2019-03-30T15:40:02.524Z,9.07
2019-03-30T15:42:44.976Z,8.83
2019-03-30T15:45:27.099Z,12.00
2019-03-30T15:48:08.423Z,9.73
2019-03-30T15:50:49.723Z,9.80
2019-03-30T15:53:31.143Z,8.93
2019-03-30T15:59:12.131Z,10.13
2019-03-30T16:01:53.458Z,14.07
2019-03-30T16:04:35.345Z,9.37
2019-03-30T16:07:17.420Z,11.30
2019-03-30T16:09:59.390Z,8.93
2019-03-30T16:12:40.717Z,12.20
2019-03-30T16:15:22.583Z,8.93
2019-03-30T16:18:04.911Z,9.23
2019-03-30T16:20:46.897Z,10.03
2019-03-30T16:23:29.055Z,14.33
2019-03-30T16:26:10.417Z,11.13
2019-03-30T16:28:52.914Z,14.07
2019-03-30T16:31:34.787Z,11.77
2019-03-30T16:34:16.587Z,10.30
2019-03-30T16:37:01.891Z,9.53
2019-03-30T16:39:43.486Z,9.00
2019-03-30T16:42:24.905Z,11.00
2019-03-30T16:45:06.491Z,12.13
2019-03-30T16:47:37.463Z,11.97
2019-03-30T16:53:35.062Z,9.67
2019-03-30T16:59:38.582Z,10.73
2019-03-30T17:02:28.031Z,11.00
2019-03-30T17:05:17.220Z,11.40
2019-03-30T17:11:12.904Z,14.53
2019-03-30T17:13:55.006Z,12.53
2019-03-30T17:16:36.882Z,12.43
2019-03-30T17:19:19.008Z,11.93
2019-03-30T17:21:51.345Z,8.13
2019-03-30T17:24:22.359Z,11.50
2019-03-30T17:27:30.879Z,10.50
2019-03-30T17:30:20.115Z,15.10
2019-03-30T17:36:18.140Z,15.10
2019-03-30T17:42:38.976Z,12.70
2019-03-30T17:45:47.143Z,17.00
2019-03-30T17:48:17.622Z,12.37
2019-03-30T17:51:06.818Z,17.27
2019-03-30T17:53:56.494Z,23.07
2019-03-30T17:56:46.275Z,23.47
2019-03-30T18:02:43.998Z,34.07
2019-03-30T18:05:25.607Z,22.97
2019-03-30T18:08:07.786Z,12.70
2019-03-30T18:10:50.289Z,13.17
2019-03-30T18:13:32.222Z,13.37
2019-03-30T18:16:14.185Z,17.60
2019-03-30T18:18:56.246Z,21.53
2019-03-30T18:21:38.134Z,32.93
2019-03-30T18:24:19.620Z,87.13
2019-03-30T18:27:01.751Z,31.93
2019-03-30T18:29:43.173Z,20.97
2019-03-30T18:32:34.001Z,22.93
2019-03-30T18:38:52.648Z,21.97
2019-03-30T18:41:41.827Z,23.23
2019-03-30T18:44:31.101Z,20.67
2019-03-30T18:47:20.366Z,24.13
2019-03-30T18:50:09.935Z,27.50
2019-03-30T18:52:59.485Z,22.40
2019-03-30T18:58:57.122Z,25.37
2019-03-30T19:01:27.827Z,20.87
2019-03-30T19:04:17.349Z,23.77
2019-03-30T19:06:47.774Z,19.60
2019-03-30T19:09:18.390Z,23.97
2019-03-30T19:12:07.862Z,97.03
2019-03-30T19:14:57.086Z,78.47
2019-03-30T19:17:46.251Z,63.67
2019-03-30T19:20:35.558Z,43.93
2019-03-30T19:23:24.722Z,33.60
2019-03-30T19:29:28.050Z,25.20
2019-03-30T19:32:17.229Z,23.30
2019-03-30T19:38:21.462Z,21.27
2019-03-30T19:40:51.827Z,22.77
2019-03-30T19:43:41.015Z,24.47
2019-03-30T19:46:30.326Z,24.30
2019-03-30T19:52:39.201Z,27.67
2019-03-30T19:55:37.923Z,26.03
2019-03-30T19:58:19.863Z,32.07
2019-03-30T20:01:01.498Z,30.23
2019-03-30T20:03:43.554Z,26.60
2019-03-30T20:06:25.300Z,24.70
2019-03-30T20:09:06.445Z,24.17
2019-03-30T20:11:48.646Z,30.03
2019-03-30T20:14:29.925Z,32.17
2019-03-30T20:17:12.086Z,37.13
2019-03-30T20:19:42.662Z,38.73
2019-03-30T20:22:31.938Z,37.93
2019-03-30T20:25:21.186Z,32.80
2019-03-30T20:31:06.186Z,38.17
2019-03-30T20:33:55.546Z,47.63
2019-03-30T20:36:45.142Z,36.03
2019-03-30T20:39:16.011Z,26.80
2019-03-30T20:45:19.440Z,21.23
2019-03-30T20:48:08.663Z,20.30
2019-03-30T20:50:57.924Z,22.67
2019-03-30T20:53:47.278Z,26.77
2019-03-30T20:56:29.159Z,22.87
2019-03-30T20:59:10.367Z,21.17
2019-03-30T21:01:41.113Z,21.50
2019-03-30T21:04:30.545Z,23.30
2019-03-30T21:07:19.757Z,25.13
2019-03-30T21:16:31.979Z,22.87
2019-03-30T21:22:35.314Z,24.07
2019-03-30T21:25:24.600Z,23.20
2019-03-30T21:28:14.129Z,23.30
2019-03-30T21:31:03.579Z,22.60
2019-03-30T21:33:52.907Z,25.07
2019-03-30T21:36:42.175Z,25.77
2019-03-30T21:39:31.426Z,21.27
2019-03-30T21:42:02.060Z,19.90
2019-03-30T21:44:51.699Z,19.80
2019-03-30T21:47:40.980Z,22.37
2019-03-30T21:50:30.276Z,21.53
2019-03-30T21:53:12.562Z,21.33
2019-03-30T21:55:54.201Z,21.40
2019-03-30T21:58:39.472Z,24.50
2019-03-30T22:01:21.323Z,23.90
2019-03-30T22:04:03.554Z,23.53
2019-03-30T22:06:45.632Z,19.20
2019-03-30T22:09:16.577Z,19.27
2019-03-30T22:15:55.803Z,21.57
2019-03-30T22:18:45.187Z,19.83
2019-03-30T22:21:34.461Z,20.73
2019-03-30T22:24:24.047Z,20.53
2019-03-30T22:30:25.201Z,22.17
2019-03-30T22:33:32.263Z,32.43
2019-03-30T22:36:21.453Z,36.73
2019-03-30T22:38:52.359Z,26.70
2019-03-30T22:41:41.658Z,22.50
2019-03-30T22:44:12.225Z,25.83
2019-03-30T22:47:01.655Z,25.67
2019-03-30T22:49:50.851Z,21.10
2019-03-30T22:52:32.422Z,24.83
2019-03-30T22:55:14.791Z,23.53
2019-03-30T22:57:56.940Z,23.20
2019-03-30T23:00:50.147Z,26.67
2019-03-30T23:03:32.055Z,31.53
2019-03-30T23:06:21.587Z,26.20
2019-03-30T23:09:23.632Z,23.03
2019-03-30T23:15:10.647Z,21.83
2019-03-30T23:18:33.538Z,38.67
2019-03-30T23:21:29.177Z,71.77
2019-03-30T23:24:18.732Z,33.93
2019-03-30T23:27:08.141Z,24.57
2019-03-30T23:29:58.002Z,22.10
2019-03-30T23:32:47.338Z,19.60
2019-03-30T23:35:17.809Z,20.97
2019-03-30T23:41:15.789Z,21.17
2019-03-30T23:44:09.128Z,24.40
2019-03-30T23:46:50.679Z,18.57
2019-03-30T23:49:32.134Z,23.70
2019-03-30T23:52:13.774Z,27.33
2019-03-30T23:54:55.046Z,27.80
2019-03-30T23:57:37.386Z,23.07
